createdAt,value
2022-12-15T00:01:20.876Z,4.75
2022-12-15T00:04:06.948Z,4.25
2022-12-15T00:06:53.149Z,3.92
2022-12-15T00:09:39.071Z,4.80
2022-12-15T00:12:29.029Z,4.72
2022-12-15T00:15:15.018Z,4.80
2022-12-15T00:18:03.416Z,3.97
2022-12-15T00:23:36.235Z,4.10
2022-12-15T00:26:22.755Z,3.70
2022-12-15T00:29:09.845Z,4.25
2022-12-15T00:31:55.567Z,4.00
2022-12-15T00:34:41.574Z,4.53
2022-12-15T00:37:27.414Z,4.45
2022-12-15T00:39:59.887Z,3.90
2022-12-15T00:42:32.339Z,4.45
2022-12-15T00:45:02.867Z,5.03
2022-12-15T00:47:33.002Z,5.38
2022-12-15T00:50:19.109Z,6.38
2022-12-15T00:53:04.882Z,6.20
2022-12-15T00:55:51.462Z,7.40
2022-12-15T00:58:37.439Z,6.30
2022-12-15T01:01:29.566Z,6.90
2022-12-15T01:04:15.836Z,6.57
2022-12-15T01:07:01.998Z,6.53
2022-12-15T01:09:47.936Z,6.82
2022-12-15T01:12:34.076Z,7.07
2022-12-15T01:15:20.125Z,7.47
2022-12-15T01:18:07.189Z,7.05
2022-12-15T01:20:35.909Z,7.50
2022-12-15T01:23:06.316Z,7.28
2022-12-15T01:25:34.936Z,8.00
2022-12-15T01:30:31.680Z,8.15
2022-12-15T01:35:30.954Z,8.70
2022-12-15T01:37:59.365Z,8.18
2022-12-15T01:40:44.946Z,9.00
2022-12-15T01:43:15.474Z,7.90
2022-12-15T01:45:54.942Z,8.10
2022-12-15T01:48:33.804Z,8.23
2022-12-15T01:51:10.404Z,8.13
2022-12-15T01:53:43.236Z,7.88
2022-12-15T01:56:14.202Z,7.63
2022-12-15T01:58:45.983Z,8.43
2022-12-15T02:01:14.706Z,8.15
2022-12-15T02:03:45.505Z,8.10
2022-12-15T02:06:14.848Z,8.02
2022-12-15T02:08:46.488Z,8.82
2022-12-15T02:12:03.470Z,8.73
2022-12-15T02:14:47.066Z,8.57
2022-12-15T02:17:28.273Z,8.70
2022-12-15T02:20:34.820Z,9.25
2022-12-15T02:23:48.503Z,7.88
2022-12-15T02:26:48.019Z,7.90
2022-12-15T02:29:31.685Z,8.95
2022-12-15T02:32:04.913Z,9.00
2022-12-15T02:34:42.397Z,8.60
2022-12-15T02:37:16.336Z,8.60
2022-12-15T02:39:45.291Z,8.52
2022-12-15T02:42:14.191Z,9.05
2022-12-15T02:44:46.796Z,9.73
2022-12-15T02:47:25.825Z,10.13
2022-12-15T02:50:21.104Z,9.40
2022-12-15T02:53:01.776Z,9.48
2022-12-15T02:55:40.621Z,9.68
2022-12-15T02:58:16.661Z,9.00
2022-12-15T03:00:54.791Z,10.57
2022-12-15T03:03:26.367Z,11.15
2022-12-15T03:05:55.384Z,9.52
2022-12-15T03:08:24.034Z,9.32
2022-12-15T03:10:56.312Z,10.90
2022-12-15T03:13:25.150Z,11.77
2022-12-15T03:15:54.632Z,10.75
2022-12-15T03:18:24.461Z,11.00
2022-12-15T03:20:53.775Z,11.43
2022-12-15T03:23:23.184Z,10.68
2022-12-15T03:25:51.823Z,11.32
2022-12-15T03:28:20.278Z,11.88
2022-12-15T03:33:19.493Z,12.07
2022-12-15T03:35:50.021Z,12.02
2022-12-15T03:38:18.755Z,12.38
2022-12-15T03:40:47.259Z,13.45
2022-12-15T03:45:43.969Z,11.93
2022-12-15T03:50:40.916Z,11.93
2022-12-15T03:53:10.835Z,13.93
2022-12-15T03:55:39.325Z,14.13
2022-12-15T04:00:36.275Z,13.27
2022-12-15T04:05:35.149Z,11.95
2022-12-15T04:08:04.111Z,13.50
2022-12-15T04:10:35.783Z,13.52
2022-12-15T04:13:07.727Z,11.77
2022-12-15T04:15:37.470Z,12.70
2022-12-15T04:18:10.180Z,12.90
2022-12-15T04:20:39.123Z,12.93
2022-12-15T04:23:08.188Z,12.65
2022-12-15T04:25:55.823Z,12.23
2022-12-15T04:28:41.959Z,12.63
2022-12-15T04:31:29.523Z,11.77
2022-12-15T04:34:19.851Z,12.18
2022-12-15T04:37:08.435Z,10.98
2022-12-15T04:39:54.688Z,12.05
2022-12-15T04:42:42.664Z,12.00
2022-12-15T04:45:30.461Z,10.90
2022-12-15T04:48:16.527Z,10.50
2022-12-15T04:51:02.589Z,10.70
2022-12-15T04:53:48.809Z,11.45
2022-12-15T04:56:35.084Z,12.52
2022-12-15T04:59:22.748Z,11.05
2022-12-15T05:02:09.103Z,10.25
2022-12-15T05:04:57.996Z,10.82
2022-12-15T05:07:44.153Z,11.57
2022-12-15T05:10:30.897Z,11.40
2022-12-15T05:13:23.126Z,10.52
2022-12-15T05:16:10.457Z,10.48
2022-12-15T05:18:56.554Z,10.10
2022-12-15T05:21:43.493Z,10.70
2022-12-15T05:24:29.462Z,9.88
2022-12-15T05:27:17.397Z,11.77
2022-12-15T05:30:03.351Z,11.13
2022-12-15T05:32:34.887Z,12.07
2022-12-15T05:35:03.448Z,10.35
2022-12-15T05:37:34.487Z,10.73
2022-12-15T05:40:03.062Z,10.75
2022-12-15T05:42:32.069Z,9.93
2022-12-15T05:47:28.777Z,10.75
2022-12-15T05:52:26.768Z,10.80
2022-12-15T05:57:23.500Z,10.77
2022-12-15T06:02:20.196Z,12.00
2022-12-15T06:04:48.783Z,11.95
2022-12-15T06:07:19.301Z,11.50
2022-12-15T06:09:48.091Z,11.57
2022-12-15T06:12:16.702Z,9.70
2022-12-15T06:14:45.323Z,12.05
2022-12-15T06:17:14.099Z,11.00
2022-12-15T06:19:42.631Z,10.85
2022-12-15T06:24:40.671Z,8.55
2022-12-15T06:27:09.242Z,9.07
2022-12-15T06:32:08.683Z,8.63
2022-12-15T06:37:05.575Z,8.75
2022-12-15T06:42:03.591Z,8.35
2022-12-15T06:44:32.116Z,8.27
2022-12-15T06:56:59.835Z,6.90
2022-12-15T06:59:29.782Z,7.97
2022-12-15T07:01:58.597Z,8.18
2022-12-15T07:04:28.056Z,8.40
2022-12-15T07:06:56.993Z,8.80
2022-12-15T07:09:27.687Z,7.03
2022-12-15T07:11:56.353Z,7.72
2022-12-15T07:14:26.056Z,7.40
2022-12-15T07:16:56.012Z,10.57
2022-12-15T07:19:32.676Z,7.53
2022-12-15T07:22:01.623Z,9.30
2022-12-15T07:24:30.178Z,9.75
2022-12-15T07:26:59.224Z,9.55
2022-12-15T07:29:29.911Z,8.88
2022-12-15T07:32:01.997Z,10.48
2022-12-15T07:34:30.814Z,8.73
2022-12-15T07:37:01.078Z,10.90
2022-12-15T07:39:29.700Z,9.35
2022-12-15T07:44:29.593Z,8.85
2022-12-15T07:46:59.657Z,9.57
2022-12-15T07:49:28.111Z,9.18
2022-12-15T07:54:27.564Z,8.15
2022-12-15T07:56:56.311Z,9.52
2022-12-15T07:59:25.021Z,8.05
2022-12-15T08:01:53.964Z,9.55
2022-12-15T08:04:25.332Z,8.90
2022-12-15T08:06:55.517Z,9.70
2022-12-15T08:09:24.157Z,9.43
2022-12-15T08:11:53.010Z,8.30
2022-12-15T08:14:22.269Z,7.05
2022-12-15T08:16:51.381Z,6.10
2022-12-15T08:19:20.058Z,8.13
2022-12-15T08:21:50.123Z,8.07
2022-12-15T08:24:19.717Z,7.85
2022-12-15T08:26:50.011Z,7.20
2022-12-15T08:32:08.079Z,7.57
2022-12-15T08:34:36.998Z,8.43
2022-12-15T08:37:06.946Z,6.78
2022-12-15T08:39:35.371Z,6.57
2022-12-15T08:44:32.079Z,6.97
2022-12-15T08:47:00.827Z,6.32
2022-12-15T08:49:29.469Z,6.90
2022-12-15T08:54:34.736Z,7.15
2022-12-15T08:57:03.274Z,7.53
2022-12-15T09:02:00.782Z,4.68
2022-12-15T09:04:29.630Z,7.35
2022-12-15T09:06:58.323Z,6.15
2022-12-15T09:09:28.127Z,6.35
2022-12-15T09:11:56.650Z,6.57
2022-12-15T09:14:29.240Z,6.03
2022-12-15T09:16:58.388Z,5.63
2022-12-15T09:19:27.129Z,6.55
2022-12-15T09:21:55.810Z,6.78
2022-12-15T09:24:32.489Z,7.10
2022-12-15T09:27:05.513Z,6.15
2022-12-15T09:29:35.168Z,7.55
2022-12-15T09:32:10.537Z,6.45
2022-12-15T09:34:42.360Z,6.20
2022-12-15T09:39:39.741Z,7.85
2022-12-15T09:42:25.025Z,7.18
2022-12-15T09:45:02.699Z,6.10
2022-12-15T09:47:44.179Z,6.10
2022-12-15T09:50:15.365Z,7.15
2022-12-15T09:52:49.758Z,6.72
2022-12-15T09:55:22.330Z,7.15
2022-12-15T09:58:06.084Z,6.00
2022-12-15T10:00:52.224Z,6.85
2022-12-15T10:03:39.355Z,6.28
2022-12-15T10:06:16.518Z,7.18
2022-12-15T10:08:53.796Z,6.40
2022-12-15T10:11:37.299Z,6.55
2022-12-15T10:14:15.747Z,7.15
2022-12-15T10:16:57.561Z,6.63
2022-12-15T10:19:32.923Z,7.13
2022-12-15T10:22:01.686Z,8.20
2022-12-15T10:27:40.022Z,7.07
2022-12-15T10:30:13.777Z,6.78
2022-12-15T10:32:51.470Z,6.97
2022-12-15T10:35:23.498Z,5.90
2022-12-15T10:37:52.831Z,6.50
2022-12-15T10:40:45.357Z,7.28
2022-12-15T10:43:27.689Z,7.05
2022-12-15T10:46:12.483Z,6.38
2022-12-15T10:48:42.017Z,6.82
2022-12-15T10:51:20.168Z,7.53
2022-12-15T10:53:51.043Z,8.73
2022-12-15T10:56:32.432Z,7.60
2022-12-15T10:59:25.834Z,7.70
2022-12-15T11:01:56.195Z,7.38
2022-12-15T11:04:29.195Z,8.02
2022-12-15T11:06:58.887Z,7.15
2022-12-15T11:09:33.154Z,8.23
2022-12-15T11:12:19.559Z,6.65
2022-12-15T11:14:49.944Z,7.10
2022-12-15T11:17:22.940Z,6.78
2022-12-15T11:20:03.061Z,7.55
2022-12-15T11:22:41.057Z,7.32
2022-12-15T11:25:21.803Z,6.50
2022-12-15T11:27:57.480Z,6.35
2022-12-15T11:30:31.717Z,6.85
2022-12-15T11:33:03.306Z,6.13
2022-12-15T11:35:54.653Z,7.13
2022-12-15T11:38:34.027Z,6.97
2022-12-15T11:41:10.237Z,7.03
2022-12-15T11:44:06.627Z,6.82
2022-12-15T11:46:44.247Z,7.32
2022-12-15T11:53:05.165Z,7.55
2022-12-15T11:55:43.180Z,7.00
2022-12-15T11:58:37.593Z,7.07
2022-12-15T12:01:13.422Z,6.90
2022-12-15T12:03:55.466Z,5.90
2022-12-15T12:06:36.065Z,7.00
2022-12-15T12:09:29.187Z,6.10
2022-12-15T12:12:06.276Z,6.25
2022-12-15T12:14:45.642Z,5.93
2022-12-15T12:17:28.623Z,7.28
2022-12-15T12:20:05.014Z,6.13
2022-12-15T12:22:44.037Z,7.40
2022-12-15T12:25:20.239Z,6.47
2022-12-15T12:27:54.280Z,5.85
2022-12-15T12:30:26.044Z,6.68
2022-12-15T12:33:01.483Z,7.38
2022-12-15T12:35:38.906Z,7.32
2022-12-15T12:38:11.389Z,7.07
2022-12-15T12:40:53.427Z,9.10
2022-12-15T12:43:33.256Z,7.25
2022-12-15T12:46:08.445Z,6.35
2022-12-15T12:48:40.366Z,7.45
2022-12-15T12:51:20.490Z,7.45
2022-12-15T12:53:51.407Z,7.55
2022-12-15T12:56:37.791Z,6.97
2022-12-15T12:59:27.987Z,7.55
2022-12-15T13:01:57.617Z,7.78
2022-12-15T13:04:41.973Z,7.60
2022-12-15T13:07:32.135Z,8.25
2022-12-15T13:10:15.334Z,8.02
2022-12-15T13:12:51.671Z,9.13
2022-12-15T13:15:35.215Z,7.13
2022-12-15T13:18:11.945Z,8.50
2022-12-15T13:20:44.082Z,8.10
2022-12-15T13:23:41.478Z,7.13
2022-12-15T13:26:16.400Z,6.65
2022-12-15T13:28:53.041Z,7.53
2022-12-15T13:31:56.630Z,7.78
2022-12-15T13:34:27.577Z,6.28
2022-12-15T13:37:01.267Z,6.22
2022-12-15T13:40:01.187Z,6.45
2022-12-15T13:42:53.126Z,6.72
2022-12-15T13:45:50.714Z,5.78
2022-12-15T13:48:36.897Z,6.45
2022-12-15T13:51:38.713Z,5.63
2022-12-15T13:54:16.726Z,6.20
2022-12-15T13:56:59.934Z,6.05
2022-12-15T13:59:38.373Z,6.30
2022-12-15T14:02:25.804Z,7.45
2022-12-15T14:05:12.959Z,6.53
2022-12-15T14:07:45.408Z,6.65
2022-12-15T14:10:22.583Z,6.72
2022-12-15T14:12:53.066Z,5.57
2022-12-15T14:15:29.179Z,7.45
2022-12-15T14:17:59.471Z,6.80
2022-12-15T14:20:29.852Z,6.53
2022-12-15T14:22:59.182Z,7.47
2022-12-15T14:25:30.768Z,6.07
2022-12-15T14:27:59.636Z,7.50
2022-12-15T14:30:33.071Z,6.30
2022-12-15T14:33:05.321Z,7.93
2022-12-15T14:35:40.247Z,7.15
2022-12-15T14:38:13.255Z,8.00
2022-12-15T14:40:43.289Z,6.20
2022-12-15T14:43:24.469Z,7.38
2022-12-15T14:46:06.445Z,7.82
2022-12-15T14:48:42.317Z,8.38
2022-12-15T14:54:00.860Z,8.15
2022-12-15T14:56:31.682Z,7.90
2022-12-15T14:59:04.870Z,7.25
2022-12-15T15:01:41.151Z,8.43
2022-12-15T15:04:26.033Z,6.93
2022-12-15T15:07:01.635Z,7.78
2022-12-15T15:09:34.861Z,7.70
2022-12-15T15:12:24.673Z,6.63
2022-12-15T15:15:00.559Z,7.43
2022-12-15T15:17:45.825Z,6.55
2022-12-15T15:20:21.644Z,6.53
2022-12-15T15:23:05.548Z,7.30
2022-12-15T15:25:40.184Z,6.50
2022-12-15T15:28:21.598Z,5.63
2022-12-15T15:30:56.114Z,5.82
2022-12-15T15:33:28.817Z,7.05
2022-12-15T15:35:59.690Z,4.63
2022-12-15T15:38:32.531Z,7.70
2022-12-15T15:41:03.043Z,5.45
2022-12-15T15:43:31.639Z,6.63
2022-12-15T15:46:03.773Z,5.93
2022-12-15T15:48:37.850Z,7.88
2022-12-15T15:51:07.547Z,6.25
2022-12-15T15:53:36.946Z,5.55
2022-12-15T15:56:08.316Z,6.03
2022-12-15T15:58:37.189Z,6.35
2022-12-15T16:01:12.706Z,6.50
2022-12-15T16:03:43.866Z,4.78
2022-12-15T16:06:18.428Z,6.70
2022-12-15T16:08:52.531Z,5.78
2022-12-15T16:11:25.419Z,6.40
2022-12-15T16:14:03.984Z,5.40
2022-12-15T16:16:35.991Z,6.68
2022-12-15T16:19:16.080Z,6.78
2022-12-15T16:21:46.591Z,6.05
2022-12-15T16:24:18.931Z,6.32
2022-12-15T16:26:52.133Z,7.15
2022-12-15T16:29:22.214Z,4.95
2022-12-15T16:31:53.759Z,6.72
2022-12-15T16:34:24.897Z,6.78
2022-12-15T16:36:53.726Z,7.10
2022-12-15T16:39:37.897Z,6.93
2022-12-15T16:42:11.128Z,6.75
2022-12-15T16:44:39.651Z,5.85
2022-12-15T16:49:40.252Z,4.82
2022-12-15T16:52:15.423Z,7.22
2022-12-15T16:54:46.532Z,4.25
2022-12-15T16:57:16.109Z,6.60
2022-12-15T16:59:47.535Z,6.80
2022-12-15T17:02:29.290Z,5.25
2022-12-15T17:04:59.546Z,6.07
2022-12-15T17:07:29.757Z,6.15
2022-12-15T17:09:58.501Z,7.07
2022-12-15T17:12:27.181Z,6.35
2022-12-15T17:14:57.639Z,5.43
2022-12-15T17:17:26.899Z,4.05
2022-12-15T17:20:28.035Z,6.18
2022-12-15T17:22:47.063Z,6.88
2022-12-15T17:25:51.960Z,5.72
2022-12-15T17:28:17.149Z,6.10
2022-12-15T17:30:46.600Z,6.53
2022-12-15T17:33:20.674Z,5.53
2022-12-15T17:36:03.064Z,5.88
2022-12-15T17:38:35.172Z,6.50
2022-12-15T17:41:03.739Z,6.72
2022-12-15T17:43:35.955Z,5.70
2022-12-15T17:46:05.264Z,5.15
2022-12-15T17:48:33.985Z,4.63
2022-12-15T17:51:02.599Z,5.97
2022-12-15T17:53:34.856Z,6.70
2022-12-15T17:56:03.670Z,6.38
2022-12-15T17:58:32.357Z,6.43
2022-12-15T18:01:03.988Z,7.28
2022-12-15T18:03:35.887Z,6.38
2022-12-15T18:06:05.544Z,6.50
2022-12-15T18:08:36.378Z,8.45
2022-12-15T18:11:05.163Z,7.15
2022-12-15T18:13:35.820Z,8.23
2022-12-15T18:16:04.798Z,8.05
2022-12-15T18:18:35.072Z,7.53
2022-12-15T18:21:12.377Z,7.40
2022-12-15T18:23:47.755Z,7.18
2022-12-15T18:26:16.648Z,7.75
2022-12-15T18:29:30.144Z,6.97
2022-12-15T18:32:21.934Z,6.50
2022-12-15T18:37:28.319Z,8.55
2022-12-15T18:40:04.845Z,6.22
2022-12-15T18:42:34.698Z,6.10
2022-12-15T18:45:05.246Z,6.88
2022-12-15T18:47:34.250Z,7.38
2022-12-15T18:50:02.787Z,7.30
2022-12-15T18:52:34.812Z,6.75
2022-12-15T18:55:05.609Z,8.43
2022-12-15T18:57:36.932Z,6.88
2022-12-15T19:00:17.765Z,7.60
2022-12-15T19:02:50.137Z,7.43
2022-12-15T19:05:32.894Z,6.80
2022-12-15T19:08:05.503Z,6.68
2022-12-15T19:10:36.037Z,7.25
2022-12-15T19:13:05.343Z,5.88
2022-12-15T19:15:33.878Z,6.68
2022-12-15T19:21:05.493Z,5.75
2022-12-15T19:23:34.957Z,6.57
2022-12-15T19:26:09.002Z,6.13
2022-12-15T19:28:39.410Z,8.25
2022-12-15T19:31:09.328Z,6.55
2022-12-15T19:33:37.932Z,5.22
2022-12-15T19:38:39.976Z,5.85
2022-12-15T19:43:42.456Z,7.13
2022-12-15T19:46:16.545Z,8.63
2022-12-15T19:48:45.201Z,7.07
2022-12-15T19:51:16.379Z,6.72
2022-12-15T19:53:46.949Z,8.23
2022-12-15T19:56:20.966Z,7.65
2022-12-15T19:58:51.678Z,7.50
2022-12-15T20:01:23.527Z,7.70
2022-12-15T20:03:54.295Z,7.93
2022-12-15T20:06:25.688Z,6.53
2022-12-15T20:08:57.048Z,6.43
2022-12-15T20:11:29.860Z,6.95
2022-12-15T20:14:01.370Z,7.38
2022-12-15T20:16:30.215Z,6.85
2022-12-15T20:18:59.306Z,7.45
2022-12-15T20:21:36.863Z,6.85
2022-12-15T20:24:09.266Z,6.07
2022-12-15T20:26:40.650Z,7.30
2022-12-15T20:29:22.347Z,6.05
2022-12-15T20:31:51.004Z,7.43
2022-12-15T20:34:19.976Z,8.00
2022-12-15T20:36:48.623Z,6.82
2022-12-15T20:39:21.782Z,8.65
2022-12-15T20:41:51.832Z,7.45
2022-12-15T20:44:20.894Z,7.57
2022-12-15T20:46:49.399Z,8.00
2022-12-15T20:51:48.152Z,7.82
2022-12-15T20:54:19.299Z,9.05
2022-12-15T20:56:48.863Z,7.22
2022-12-15T20:59:19.349Z,6.57
2022-12-15T21:01:48.274Z,7.13
2022-12-15T21:04:26.075Z,7.65
2022-12-15T21:06:55.555Z,7.38
2022-12-15T21:09:25.190Z,7.45
2022-12-15T21:11:55.269Z,6.28
2022-12-15T21:14:26.117Z,7.55
2022-12-15T21:16:55.449Z,9.35
2022-12-15T21:19:24.886Z,7.88
2022-12-15T21:24:56.955Z,7.10
2022-12-15T21:27:36.552Z,7.72
2022-12-15T21:30:41.073Z,8.98
2022-12-15T21:33:11.887Z,8.50
2022-12-15T21:35:41.875Z,9.45
2022-12-15T21:38:50.379Z,9.45
2022-12-15T21:41:23.476Z,7.88
2022-12-15T21:43:52.149Z,8.82
2022-12-15T21:49:14.609Z,8.07
2022-12-15T21:51:45.344Z,8.05
2022-12-15T21:54:22.849Z,9.82
2022-12-15T21:56:54.741Z,8.68
2022-12-15T21:59:25.620Z,7.45
2022-12-15T22:01:56.307Z,8.65
2022-12-15T22:04:29.466Z,8.70
2022-12-15T22:06:58.000Z,9.15
2022-12-15T22:09:26.503Z,9.55
2022-12-15T22:14:27.369Z,9.45
2022-12-15T22:16:57.894Z,8.90
2022-12-15T22:19:26.556Z,9.90
2022-12-15T22:21:55.322Z,7.43
2022-12-15T22:24:23.820Z,9.45
2022-12-15T22:29:23.157Z,10.25
2022-12-15T22:31:52.030Z,8.48
2022-12-15T22:34:23.483Z,9.48
2022-12-15T22:36:52.651Z,8.40
2022-12-15T22:39:24.532Z,9.00
2022-12-15T22:41:53.743Z,9.18
2022-12-15T22:44:25.163Z,7.95
2022-12-15T22:46:56.884Z,8.55
2022-12-15T22:49:31.910Z,11.50
2022-12-15T22:52:00.397Z,9.65
2022-12-15T22:54:30.397Z,10.20
2022-12-15T22:57:01.826Z,11.00
2022-12-15T22:59:34.579Z,9.80
2022-12-15T23:02:03.848Z,9.73
2022-12-15T23:04:34.022Z,8.75
2022-12-15T23:07:04.855Z,8.82
2022-12-15T23:09:33.371Z,7.40
2022-12-15T23:12:00.744Z,10.23
2022-12-15T23:14:43.049Z,12.95
2022-12-15T23:17:12.681Z,10.15
2022-12-15T23:19:45.835Z,10.77
2022-12-15T23:22:14.835Z,9.02
2022-12-15T23:24:43.417Z,10.27
2022-12-15T23:29:41.127Z,8.95
2022-12-15T23:34:37.742Z,8.13
2022-12-15T23:39:36.852Z,8.75
2022-12-15T23:42:06.112Z,10.73
2022-12-15T23:44:34.666Z,10.43
2022-12-15T23:49:33.407Z,10.75
2022-12-15T23:52:01.968Z,9.90
2022-12-15T23:56:59.923Z,9.18
2022-12-15T23:59:28.349Z,9.02
